Time;durP1;ratioP1;P1;durP2;ratioP2;P2;SDS_P1;SDS_P2;PMS_P1;PMS_P2;Temp;Humidity;BMP_temperature;BMP_pressure;BME280_temperature;BME280_humidity;BME280_pressure;Samples;Min_cycle;Max_cycle;Signal;HPM_P1;HPM_P2
2022/01/26 00:06:36;;;;;;;;;;;;;;;1.80;34.78;101050.53;5069482;28;19931;-78
2022/01/26 00:09:02;;;;;;;;;;;;;;;1.62;34.08;101075.22;5070856;28;20397;-77
2022/01/26 00:11:31;;;;;;;;;;;;;;;1.71;33.85;101080.69;5068802;28;19917;-77
2022/01/26 00:13:56;;;;;;;;;;;;;;;1.45;36.81;101082.22;5054780;28;19948;-78
2022/01/26 00:16:26;;;;;;;;;;;;;;;1.74;38.02;101118.03;5051428;28;19940;-78
2022/01/26 00:18:55;;;;;;;;;;;;;;;1.83;34.54;101131.09;5070389;28;19957;-77
2022/01/26 00:27:26;;;;;;;;;;;;;;;2.17;20.75;101157.75;5069979;28;19932;-78
2022/01/26 00:30:01;;;;;;;;;;;;;;;2.24;22.43;101159.72;5054180;28;19916;-77
2022/01/26 00:40:50;;;;;;;;;;;;;;;1.53;20.41;101157.03;5068429;28;19971;-78
2022/01/26 00:43:24;;;;;;;;;;;;;;;1.75;22.98;101179.03;5070026;28;20039;-76
2022/01/26 00:45:55;;;;;;;;;;;;;;;2.53;17.75;101200.56;5067646;28;19956;-78
2022/01/26 00:48:21;;;;;;;;;;;;;;;1.96;16.21;101168.84;5069283;28;19920;-77
2022/01/26 00:50:50;;;;;;;;;;;;;;;1.81;15.99;101166.59;5063823;28;19939;-77
2022/01/26 00:53:16;;;;;;;;;;;;;;;2.30;13.15;101167.53;5067368;28;19947;-77
2022/01/26 00:55:41;;;;;;;;;;;;;;;3.24;12.07;101176.75;5056454;28;19920;-78
2022/01/26 00:58:06;;;;;;;;;;;;;;;2.75;10.89;101149.63;5071369;28;19928;-78
2022/01/26 01:00:32;;;;;;;;;;;;;;;2.75;11.24;101148.78;5073601;28;19920;-79
2022/01/26 01:02:58;;;;;;;;;;;;;;;3.35;10.86;101149.94;5073470;28;19912;-77
2022/01/26 01:05:28;;;;;;;;;;;;;;;3.46;11.50;101122.25;5054772;28;19952;-78
2022/01/26 01:08:01;;;;;;;;;;;;;;;3.45;12.46;101104.38;5055374;28;20640;-77
2022/01/26 01:10:27;;;;;;;;;;;;;;;3.57;13.33;101089.47;5056078;28;19927;-76
2022/01/26 01:12:58;;;;;;;;;;;;;;;3.69;14.45;101078.75;5073778;28;19979;-77
2022/01/26 01:15:24;;;;;;;;;;;;;;;3.61;16.09;101035.25;5071578;28;19912;-77
2022/01/26 01:17:53;;;;;;;;;;;;;;;3.64;17.45;101004.75;5073328;28;19920;-78
2022/01/26 01:28:13;;;;;;;;;;;;;;;3.55;22.37;100894.94;5073916;28;19999;-77
2022/01/26 01:30:45;;;;;;;;;;;;;;;3.81;22.54;100864.19;5070477;28;20297;-77
2022/01/26 01:33:17;;;;;;;;;;;;;;;3.87;22.90;100838.84;5056056;28;20004;-78
2022/01/26 01:35:44;;;;;;;;;;;;;;;3.37;24.83;100805.31;5056538;28;19924;-78
2022/01/26 01:38:13;;;;;;;;;;;;;;;3.79;24.09;100782.59;5073638;28;19933;-79
2022/01/26 01:40:40;;;;;;;;;;;;;;;3.79;24.71;100772.41;5073054;28;19978;-78
2022/01/26 01:43:05;;;;;;;;;;;;;;;3.78;25.45;100748.59;5072409;28;19917;-78
2022/01/26 01:45:35;;;;;;;;;;;;;;;3.41;27.07;100720.53;5072992;28;20136;-77
2022/01/26 01:48:00;;;;;;;;;;;;;;;3.41;26.66;100713.75;5073785;28;19979;-79
2022/01/26 01:50:26;;;;;;;;;;;;;;;3.60;26.36;100715.03;5070630;28;19947;-77
2022/01/26 01:52:58;;;;;;;;;;;;;;;3.29;27.90;100696.47;5053145;28;19927;-76
2022/01/26 01:55:26;;;;;;;;;;;;;;;3.38;26.59;100700.94;5072350;28;20733;-78
2022/01/26 01:57:52;;;;;;;;;;;;;;;3.21;26.19;100687.78;5071955;28;19920;-79
2022/01/26 02:00:17;;;;;;;;;;;;;;;2.88;28.52;100687.81;5071544;28;19920;-77
2022/01/26 02:02:42;;;;;;;;;;;;;;;3.29;26.70;100696.47;5071750;28;19927;-78
2022/01/26 02:05:08;;;;;;;;;;;;;;;3.25;26.62;100694.69;5072014;28;19933;-77
2022/01/26 02:07:33;;;;;;;;;;;;;;;3.50;25.99;100700.38;5070179;28;19924;-78
2022/01/26 02:10:01;;;;;;;;;;;;;;;2.71;28.60;100682.25;5053762;28;19924;-77
2022/01/26 02:12:27;;;;;;;;;;;;;;;3.02;26.77;100675.44;5070270;28;19930;-78
2022/01/26 02:15:03;;;;;;;;;;;;;;;2.81;26.78;100685.91;5088960;28;19966;-78
2022/01/26 02:55:49;;;;;;;;;;;;;;;3.56;24.59;100649.59;5071445;28;20021;-77
2022/01/26 03:03:50;;;;;;;;;;;;;;;3.10;27.12;100630.66;5070293;28;19931;-78
2022/01/26 03:06:21;;;;;;;;;;;;;;;3.30;26.10;100616.72;5068515;28;20341;-78
2022/01/26 03:08:57;;;;;;;;;;;;;;;3.54;25.79;100620.66;5055533;28;20310;-78
2022/01/26 03:11:26;;;;;;;;;;;;;;;3.62;24.55;100628.47;5069527;28;19920;-76
2022/01/26 03:13:59;;;;;;;;;;;;;;;3.55;25.55;100617.28;5067364;28;19920;-77
2022/01/26 03:16:49;;;;;;;;;;;;;;;3.21;25.94;100606.31;5068051;28;19931;-77
2022/01/26 03:19:24;;;;;;;;;;;;;;;3.59;24.91;100619.06;5069976;28;19912;-78
2022/01/26 03:30:07;;;;;;;;;;;;;;;3.28;25.64;100572.53;5071111;28;19923;-78
2022/01/26 03:35:04;;;;;;;;;;;;;;;3.48;25.92;100580.63;5070527;28;19912;-78
2022/01/26 03:37:37;;;;;;;;;;;;;;;3.37;25.99;100571.88;5069289;28;19924;-78
2022/01/26 03:40:11;;;;;;;;;;;;;;;3.11;26.15;100568.75;5070153;28;19943;-79
2022/01/26 03:42:36;;;;;;;;;;;;;;;3.19;25.51;100557.03;5044371;28;19916;-78
2022/01/26 03:45:01;;;;;;;;;;;;;;;3.27;24.97;100580.16;5068994;28;19971;-78
2022/01/26 03:47:27;;;;;;;;;;;;;;;1.95;28.76;100590.34;5052531;28;19928;-77
2022/01/26 03:49:52;;;;;;;;;;;;;;;2.91;25.98;100581.84;5072970;28;19959;-78
2022/01/26 03:52:17;;;;;;;;;;;;;;;3.44;24.05;100589.00;5069887;28;19977;-79
2022/01/26 03:54:43;;;;;;;;;;;;;;;3.18;23.28;100580.78;5069803;28;19916;-78
2022/01/26 03:57:08;;;;;;;;;;;;;;;3.33;23.57;100581.16;5066920;28;19982;-77
2022/01/26 03:59:34;;;;;;;;;;;;;;;3.31;23.42;100575.16;5066642;28;20746;-77
2022/01/26 04:02:03;;;;;;;;;;;;;;;3.27;23.27;100573.38;5047706;28;19931;-78
2022/01/26 04:04:33;;;;;;;;;;;;;;;3.54;23.00;100579.91;5065838;28;20002;-77
2022/01/26 04:07:00;;;;;;;;;;;;;;;3.49;23.60;100582.38;5066376;28;19978;-76
2022/01/26 04:09:25;;;;;;;;;;;;;;;3.65;22.52;100588.66;5066586;28;19947;-77
2022/01/26 04:11:51;;;;;;;;;;;;;;;3.60;23.60;100582.56;5063403;28;20292;-78
2022/01/26 04:14:20;;;;;;;;;;;;;;;3.70;23.10;100576.88;5051657;28;19916;-78
2022/01/26 04:16:46;;;;;;;;;;;;;;;3.59;23.29;100563.03;5067379;28;19925;-77
2022/01/26 04:19:11;;;;;;;;;;;;;;;3.45;24.07;100561.88;5069474;28;20966;-78
2022/01/26 04:24:22;;;;;;;;;;;;;;;2.59;26.45;100547.13;5070176;28;19917;-78
2022/01/26 04:26:57;;;;;;;;;;;;;;;2.91;25.90;100561.50;5068582;28;19924;-78
2022/01/26 04:29:28;;;;;;;;;;;;;;;2.39;27.50;100564.41;5069787;28;19920;-79
2022/01/26 04:31:54;;;;;;;;;;;;;;;2.46;26.21;100586.63;5052236;28;20013;-78
2022/01/26 04:34:20;;;;;;;;;;;;;;;2.41;26.48;100604.31;5069742;28;19916;-77
2022/01/26 04:39:36;;;;;;;;;;;;;;;2.93;24.20;100626.00;5067360;28;19973;-78
2022/01/26 04:42:10;;;;;;;;;;;;;;;2.55;23.92;100639.41;5042156;28;19920;-77
2022/01/26 04:44:42;;;;;;;;;;;;;;;2.55;23.46;100647.06;5068745;28;19920;-78
2022/01/26 04:47:08;;;;;;;;;;;;;;;2.63;23.57;100653.22;5066211;28;20315;-79
2022/01/26 04:49:34;;;;;;;;;;;;;;;3.03;20.69;100666.97;5068253;28;19920;-79
2022/01/26 04:52:01;;;;;;;;;;;;;;;3.47;19.08;100674.84;5068738;28;19932;-78
2022/01/26 04:54:27;;;;;;;;;;;;;;;2.41;20.33;100669.56;5051735;28;20396;-78
2022/01/26 04:56:52;;;;;;;;;;;;;;;3.03;20.32;100661.88;5069251;28;19916;-78
2022/01/26 04:59:17;;;;;;;;;;;;;;;3.06;20.30;100667.06;5068825;28;20007;-78
2022/01/26 05:01:43;;;;;;;;;;;;;;;2.58;19.86;100667.47;5068310;28;19920;-79
2022/01/26 05:04:09;;;;;;;;;;;;;;;3.07;20.01;100666.22;5068121;28;19921;-78
2022/01/26 05:06:34;;;;;;;;;;;;;;;3.30;19.19;100666.78;5069465;28;19920;-78
2022/01/26 05:09:00;;;;;;;;;;;;;;;3.13;19.46;100668.94;5069629;28;20608;-77
2022/01/26 05:11:35;;;;;;;;;;;;;;;2.72;19.67;100661.09;5069524;28;20336;-79
2022/01/26 05:14:01;;;;;;;;;;;;;;;2.39;20.91;100651.72;5068929;28;19943;-77
2022/01/26 05:16:26;;;;;;;;;;;;;;;3.26;18.81;100654.78;5068160;28;19928;-77
2022/01/26 05:18:53;;;;;;;;;;;;;;;3.37;18.90;100657.59;5065449;28;19927;-79
2022/01/26 05:21:22;;;;;;;;;;;;;;;3.62;18.47;100651.41;5067273;28;20027;-78
2022/01/26 05:23:47;;;;;;;;;;;;;;;2.19;21.53;100661.34;5065959;28;19920;-78
2022/01/26 05:26:13;;;;;;;;;;;;;;;2.12;22.61;100673.81;5068884;28;20066;-78
2022/01/26 05:28:39;;;;;;;;;;;;;;;1.88;24.66;100682.44;5051413;28;19924;-78
2022/01/26 05:31:04;;;;;;;;;;;;;;;1.60;24.62;100695.97;5048060;28;20397;-78
2022/01/26 05:33:30;;;;;;;;;;;;;;;1.49;26.53;100710.84;5066497;28;19920;-78
2022/01/26 05:35:55;;;;;;;;;;;;;;;1.14;26.58;100724.91;5067342;28;20027;-78
2022/01/26 05:38:21;;;;;;;;;;;;;;;1.52;26.11;100741.41;5066827;28;19997;-78
2022/01/26 05:40:46;;;;;;;;;;;;;;;1.37;25.22;100763.75;5064448;28;19927;-78
2022/01/26 05:43:14;;;;;;;;;;;;;;;1.17;27.13;100766.50;5054299;28;20007;-77
2022/01/26 05:45:40;;;;;;;;;;;;;;;1.46;26.92;100784.38;5070293;28;19923;-78
2022/01/26 05:48:10;;;;;;;;;;;;;;;1.33;27.28;100784.78;5055060;28;19931;-78
2022/01/26 05:50:37;;;;;;;;;;;;;;;1.52;26.38;100789.66;5069971;28;19920;-77
2022/01/26 05:53:03;;;;;;;;;;;;;;;1.41;24.45;100804.50;5071127;28;20202;-77
2022/01/26 05:55:28;;;;;;;;;;;;;;;1.50;25.58;100811.59;5070363;28;19912;-77
2022/01/26 05:57:53;;;;;;;;;;;;;;;1.83;23.33;100811.00;5072133;28;20369;-78
2022/01/26 06:00:19;;;;;;;;;;;;;;;1.51;22.30;100804.84;5070321;28;19964;-77
2022/01/26 06:02:45;;;;;;;;;;;;;;;1.68;21.08;100809.66;5069679;28;20565;-77
2022/01/26 06:05:10;;;;;;;;;;;;;;;1.88;20.91;100804.38;5050908;28;19916;-78
2022/01/26 06:07:36;;;;;;;;;;;;;;;1.49;20.45;100809.88;5067898;28;20316;-78
2022/01/26 06:10:02;;;;;;;;;;;;;;;1.14;21.37;100807.00;5068597;28;19957;-78
2022/01/26 06:12:29;;;;;;;;;;;;;;;1.74;24.03;100810.69;5050502;28;19948;-78
2022/01/26 06:14:55;;;;;;;;;;;;;;;2.12;19.68;100813.59;5051590;28;19921;-79
2022/01/26 06:17:20;;;;;;;;;;;;;;;1.62;19.33;100801.84;5068527;28;19977;-77
2022/01/26 06:19:46;;;;;;;;;;;;;;;1.56;20.23;100796.56;5069387;28;19950;-78
2022/01/26 06:22:11;;;;;;;;;;;;;;;2.24;16.75;100791.09;5051022;28;19960;-77
2022/01/26 06:24:36;;;;;;;;;;;;;;;2.08;14.70;100777.06;5050990;28;19969;-77
2022/01/26 06:27:02;;;;;;;;;;;;;;;2.20;15.84;100766.41;5066768;28;19920;-78
2022/01/26 06:29:30;;;;;;;;;;;;;;;1.74;15.17;100762.44;5068448;28;20019;-79
2022/01/26 06:31:56;;;;;;;;;;;;;;;2.21;13.35;100768.13;5069287;28;19972;-78
2022/01/26 06:34:21;;;;;;;;;;;;;;;1.72;14.13;100751.38;5072525;28;19917;-78
2022/01/26 06:36:47;;;;;;;;;;;;;;;1.54;14.92;100756.72;5054198;28;19940;-77
2022/01/26 06:39:13;;;;;;;;;;;;;;;1.33;16.98;100772.94;5055221;28;19916;-78
2022/01/26 06:41:42;;;;;;;;;;;;;;;1.36;18.35;100782.34;5067973;28;20531;-77
2022/01/26 06:44:18;;;;;;;;;;;;;;;1.71;17.73;100780.97;5069164;28;19916;-78
2022/01/26 06:47:19;;;;;;;;;;;;;;;1.26;18.20;100786.25;5054010;28;19965;-77
2022/01/26 06:49:29;;;;;;;;;;;;;;;1.38;18.86;100794.28;5067168;28;19924;-76
2022/01/26 06:51:55;;;;;;;;;;;;;;;1.30;19.61;100818.53;5067148;28;20390;-77
2022/01/26 06:54:20;;;;;;;;;;;;;;;1.51;19.70;100812.47;5051801;28;19931;-78
2022/01/26 06:56:45;;;;;;;;;;;;;;;1.87;18.01;100821.31;5067863;28;20691;-79
2022/01/26 06:59:13;;;;;;;;;;;;;;;1.48;18.24;100813.22;5053867;28;19923;-78
2022/01/26 07:01:39;;;;;;;;;;;;;;;1.44;18.06;100817.34;5055555;28;19925;-77
2022/01/26 07:04:05;;;;;;;;;;;;;;;1.29;20.37;100821.03;5059014;28;19923;-78
2022/01/26 07:06:30;;;;;;;;;;;;;;;1.46;20.26;100838.56;5057203;28;19982;-77
2022/01/26 07:08:56;;;;;;;;;;;;;;;1.80;19.06;100836.28;5056030;28;19917;-78
2022/01/26 07:11:21;;;;;;;;;;;;;;;1.81;17.66;100843.09;5056694;28;20364;-77
2022/01/26 07:13:46;;;;;;;;;;;;;;;2.01;15.85;100821.75;5076868;28;19917;-77
2022/01/26 07:21:40;;;;;;;;;;;;;;;1.56;16.56;100816.03;5073704;28;19962;-77
2022/01/26 07:24:05;;;;;;;;;;;;;;;1.95;15.02;100821.53;5057847;28;19916;-77
2022/01/26 07:26:31;;;;;;;;;;;;;;;1.59;15.68;100816.97;5058075;28;19920;-78
2022/01/26 07:29:00;;;;;;;;;;;;;;;1.63;14.32;100813.72;5059018;28;19927;-77
2022/01/26 07:31:26;;;;;;;;;;;;;;;1.38;17.04;100813.72;5074767;28;19918;-79
2022/01/26 07:33:57;;;;;;;;;;;;;;;1.31;18.78;100835.47;5074028;28;20369;-79
2022/01/26 07:36:25;;;;;;;;;;;;;;;1.48;19.06;100833.50;5074122;28;20032;-79
2022/01/26 07:38:54;;;;;;;;;;;;;;;1.93;17.02;100852.81;5073920;28;19919;-78
2022/01/26 07:41:22;;;;;;;;;;;;;;;1.81;15.75;100838.03;5064532;28;19916;-78
2022/01/26 07:43:48;;;;;;;;;;;;;;;1.38;16.81;100826.41;5064980;28;19943;-78
2022/01/26 07:46:14;;;;;;;;;;;;;;;1.46;17.84;100835.16;5081835;28;19913;-78
2022/01/26 07:48:42;;;;;;;;;;;;;;;1.57;19.20;100848.22;5082558;28;19920;-78
2022/01/26 07:51:07;;;;;;;;;;;;;;;1.66;19.02;100851.91;5082676;28;19913;-78
2022/01/26 07:53:36;;;;;;;;;;;;;;;2.12;16.28;100849.16;5066252;28;20385;-78
2022/01/26 07:56:01;;;;;;;;;;;;;;;1.40;15.61;100835.81;5064898;28;20045;-79
2022/01/26 07:58:26;;;;;;;;;;;;;;;1.21;17.61;100833.44;5082174;28;19940;-78
2022/01/26 08:00:52;;;;;;;;;;;;;;;1.31;18.29;100835.47;5080499;28;19912;-78
2022/01/26 08:03:17;;;;;;;;;;;;;;;1.51;19.08;100843.78;5080752;28;19913;-78
2022/01/26 08:05:43;;;;;;;;;;;;;;;1.62;18.42;100847.56;5082432;28;20109;-78
2022/01/26 08:08:09;;;;;;;;;;;;;;;1.53;18.51;100856.53;5081503;28;19921;-78
2022/01/26 08:10:35;;;;;;;;;;;;;;;1.65;18.85;100862.91;5082112;28;19927;-77
2022/01/26 08:13:04;;;;;;;;;;;;;;;1.46;18.61;100870.72;5081751;28;19955;-78
2022/01/26 08:15:30;;;;;;;;;;;;;;;1.52;19.32;100860.75;5081236;28;20374;-78
2022/01/26 08:17:56;;;;;;;;;;;;;;;1.72;17.59;100858.91;5082774;28;19966;-78
2022/01/26 08:20:28;;;;;;;;;;;;;;;1.50;17.30;100847.13;5080138;28;19912;-77
2022/01/26 08:22:56;;;;;;;;;;;;;;;1.51;18.28;100856.50;5064273;28;19913;-79
2022/01/26 08:25:33;;;;;;;;;;;;;;;1.68;16.91;100873.16;5072874;28;19912;-78
2022/01/26 08:28:14;;;;;;;;;;;;;;;1.44;18.97;100874.88;5082597;28;19916;-77
2022/01/26 08:30:41;;;;;;;;;;;;;;;1.42;19.24;100879.03;5082924;28;19920;-78
2022/01/26 08:33:07;;;;;;;;;;;;;;;1.41;19.44;100873.06;5080131;28;19936;-78
2022/01/26 08:35:32;;;;;;;;;;;;;;;1.48;20.39;100884.28;5081376;28;19923;-78
2022/01/26 08:37:58;;;;;;;;;;;;;;;1.31;19.84;100890.47;5082726;28;20235;-78
2022/01/26 08:40:43;;;;;;;;;;;;;;;1.53;20.84;100898.03;5082685;28;19912;-78
2022/01/26 08:43:09;;;;;;;;;;;;;;;1.43;21.42;100896.81;5082109;28;19960;-78
2022/01/26 08:45:34;;;;;;;;;;;;;;;1.27;24.14;100903.84;5064610;28;19977;-79
2022/01/26 08:48:00;;;;;;;;;;;;;;;1.37;23.37;100916.06;5082536;28;19955;-79
2022/01/26 08:50:25;;;;;;;;;;;;;;;1.18;25.93;100940.75;5081715;28;19947;-78
2022/01/26 08:52:50;;;;;;;;;;;;;;;1.50;26.68;100942.75;5083425;28;19912;-78
2022/01/26 08:55:16;;;;;;;;;;;;;;;1.27;25.16;100941.91;5065254;28;19938;-78
2022/01/26 08:57:41;;;;;;;;;;;;;;;1.13;28.22;100946.50;5080352;28;19916;-79
2022/01/26 09:00:08;;;;;;;;;;;;;;;1.22;27.22;100956.97;5075651;28;19912;-78
2022/01/26 09:02:33;;;;;;;;;;;;;;;1.35;28.87;100958.31;5076454;28;19913;-78
2022/01/26 09:04:59;;;;;;;;;;;;;;;1.32;28.96;100970.88;5061834;28;19916;-78
2022/01/26 09:07:24;;;;;;;;;;;;;;;1.29;31.88;100981.78;5063610;28;20389;-79
2022/01/26 09:09:50;;;;;;;;;;;;;;;1.19;33.18;100980.56;5078279;28;19913;-78
2022/01/26 09:12:18;;;;;;;;;;;;;;;0.97;36.79;100999.16;5078313;28;19916;-78
2022/01/26 09:14:44;;;;;;;;;;;;;;;1.07;38.37;101020.69;5081729;28;19940;-78
2022/01/26 09:17:11;;;;;;;;;;;;;;;0.99;41.72;101032.22;5080405;28;19931;-78
2022/01/26 09:19:38;;;;;;;;;;;;;;;0.97;42.50;101038.91;5077051;28;19912;-78
2022/01/26 09:22:06;;;;;;;;;;;;;;;0.93;44.20;101052.25;5062943;28;20441;-78
2022/01/26 09:24:32;;;;;;;;;;;;;;;1.01;45.24;101078.81;5066258;28;19920;-78
2022/01/26 09:26:58;;;;;;;;;;;;;;;1.11;41.38;101085.97;5075291;28;20251;-78
2022/01/26 09:29:23;;;;;;;;;;;;;;;1.75;38.79;101101.97;5078077;28;19939;-78
2022/01/26 09:31:49;;;;;;;;;;;;;;;2.03;33.53;101099.66;5080189;28;20279;-78
2022/01/26 09:34:15;;;;;;;;;;;;;;;1.77;30.17;101085.13;5073605;28;19923;-78
2022/01/26 09:36:41;;;;;;;;;;;;;;;2.38;24.97;101092.41;5059680;28;19916;-78
2022/01/26 09:39:06;;;;;;;;;;;;;;;2.42;22.74;101084.06;5082780;28;19912;-77
2022/01/26 09:41:32;;;;;;;;;;;;;;;2.40;20.90;101069.59;5060533;28;19951;-77
2022/01/26 09:43:58;;;;;;;;;;;;;;;2.97;18.90;101064.69;5078563;28;20054;-78
2022/01/26 09:46:24;;;;;;;;;;;;;;;2.60;17.15;101042.25;5058316;28;19923;-78
2022/01/26 09:48:49;;;;;;;;;;;;;;;2.27;16.73;101014.91;5079749;28;19980;-78
2022/01/26 09:51:17;;;;;;;;;;;;;;;2.32;16.77;101010.81;5078943;28;19912;-78
2022/01/26 09:53:42;;;;;;;;;;;;;;;2.56;15.06;101000.63;5077981;28;19924;-78
2022/01/26 09:56:07;;;;;;;;;;;;;;;2.66;14.96;100981.41;5076643;28;20374;-78
2022/01/26 09:58:33;;;;;;;;;;;;;;;2.60;14.61;100965.94;5077789;28;19923;-78
2022/01/26 10:00:59;;;;;;;;;;;;;;;2.90;14.13;100940.63;5076972;28;20350;-78
2022/01/26 10:03:28;;;;;;;;;;;;;;;2.59;15.19;100903.19;5060358;28;20631;-78
2022/01/26 10:05:53;;;;;;;;;;;;;;;2.92;14.56;100873.69;5057499;28;19959;-78
2022/01/26 10:19:01;;;;;;;;;;;;;;;3.47;18.36;100730.88;5075574;28;19917;-78
2022/01/26 10:21:26;;;;;;;;;;;;;;;3.24;19.95;100703.16;5075905;28;20352;-78
2022/01/26 10:23:52;;;;;;;;;;;;;;;3.25;20.77;100683.63;5073402;28;19916;-78
2022/01/26 10:26:19;;;;;;;;;;;;;;;2.93;21.63;100666.72;5077314;28;19978;-78
2022/01/26 10:28:56;;;;;;;;;;;;;;;3.32;21.15;100657.50;5073289;28;20459;-77
2022/01/26 10:31:22;;;;;;;;;;;;;;;2.88;21.76;100632.66;5077253;28;20339;-78
2022/01/26 10:33:54;;;;;;;;;;;;;;;3.22;22.26;100633.50;5076383;28;19912;-78
2022/01/26 10:36:20;;;;;;;;;;;;;;;3.12;22.87;100631.56;5077595;28;19925;-78
2022/01/26 10:38:55;;;;;;;;;;;;;;;2.83;22.59;100623.19;5076995;28;20010;-77
2022/01/26 10:41:21;;;;;;;;;;;;;;;3.07;23.25;100628.03;5059804;28;19964;-78
2022/01/26 10:43:50;;;;;;;;;;;;;;;2.73;24.40;100624.63;5060607;28;19916;-77
2022/01/26 10:46:25;;;;;;;;;;;;;;;2.87;24.00;100630.97;5063207;28;19926;-79
2022/01/26 10:49:05;;;;;;;;;;;;;;;2.18;25.45;100639.25;5065505;28;20029;-79
2022/01/26 10:51:42;;;;;;;;;;;;;;;3.16;23.96;100638.44;5067294;28;20382;-78
2022/01/26 10:54:17;;;;;;;;;;;;;;;3.37;21.28;100632.16;5058910;28;19943;-80
2022/01/26 10:56:42;;;;;;;;;;;;;;;2.86;23.04;100616.50;5063279;28;21476;-79
2022/01/26 10:59:08;;;;;;;;;;;;;;;2.92;21.99;100626.84;5047490;28;19928;-79
2022/01/26 11:01:34;;;;;;;;;;;;;;;3.10;22.93;100631.53;5068974;28;19920;-79
2022/01/26 11:03:59;;;;;;;;;;;;;;;2.61;22.98;100637.06;5062144;28;20023;-78
2022/01/26 11:06:24;;;;;;;;;;;;;;;3.00;23.03;100638.91;5064527;28;19921;-80
2022/01/26 11:08:50;;;;;;;;;;;;;;;2.84;22.63;100630.00;5066180;28;19921;-80
2022/01/26 11:11:19;;;;;;;;;;;;;;;2.70;22.79;100629.66;5065056;28;19920;-80
2022/01/26 11:13:45;;;;;;;;;;;;;;;3.00;23.15;100641.44;5065611;28;20011;-78
2022/01/26 11:16:11;;;;;;;;;;;;;;;2.32;22.47;100644.72;5065245;28;20400;-79
2022/01/26 11:18:46;;;;;;;;;;;;;;;2.58;23.30;100659.84;5066203;28;19916;-80
2022/01/26 11:21:16;;;;;;;;;;;;;;;2.68;22.33;100677.94;5065292;28;19920;-79
2022/01/26 11:23:41;;;;;;;;;;;;;;;2.23;23.56;100696.16;5065428;28;19986;-78
2022/01/26 11:26:20;;;;;;;;;;;;;;;2.26;25.86;100687.81;5065448;28;19920;-79
2022/01/26 11:28:46;;;;;;;;;;;;;;;2.34;22.74;100696.50;5062734;28;19931;-79
2022/01/26 11:31:14;;;;;;;;;;;;;;;2.67;22.21;100709.28;5063202;28;19920;-79
2022/01/26 11:33:39;;;;;;;;;;;;;;;2.58;21.58;100720.88;5066895;28;19927;-78
2022/01/26 11:36:05;;;;;;;;;;;;;;;2.75;23.15;100711.19;5065997;28;19928;-79
2022/01/26 11:47:04;;;;;;;;;;;;;;;3.10;20.78;100699.38;5066708;28;20682;-79
2022/01/26 11:49:34;;;;;;;;;;;;;;;2.82;19.00;100702.88;5066649;28;19925;-79
2022/01/26 11:51:59;;;;;;;;;;;;;;;2.93;18.91;100707.44;5064861;28;20365;-79
2022/01/26 11:54:25;;;;;;;;;;;;;;;2.89;20.85;100715.81;5064509;28;19932;-79
2022/01/26 11:56:54;;;;;;;;;;;;;;;3.04;20.12;100727.25;5066205;28;19952;-78
2022/01/26 11:59:20;;;;;;;;;;;;;;;2.85;21.84;100729.28;5065914;28;19921;-79
2022/01/26 12:01:54;;;;;;;;;;;;;;;2.58;22.66;100738.69;5066560;28;19916;-79
2022/01/26 12:04:20;;;;;;;;;;;;;;;2.58;23.31;100747.19;5064347;28;20297;-79
2022/01/26 12:06:51;;;;;;;;;;;;;;;2.34;25.53;100747.34;5064497;28;19927;-79
2022/01/26 12:09:17;;;;;;;;;;;;;;;2.47;26.41;100762.13;5063415;28;19927;-80
2022/01/26 12:11:49;;;;;;;;;;;;;;;2.37;27.01;100770.28;5065540;28;19920;-79
2022/01/26 12:14:20;;;;;;;;;;;;;;;2.48;27.53;100779.09;5069572;28;19921;-80
2022/01/26 12:16:49;;;;;;;;;;;;;;;2.66;27.56;100783.00;5062312;28;20008;-78
2022/01/26 12:36:19;;;;;;;;;;;;;;;2.58;33.78;100809.88;5062618;28;19942;-80
2022/01/26 12:38:50;;;;;;;;;;;;;;;2.53;34.93;100802.13;5065008;28;19943;-79
2022/01/26 12:41:34;;;;;;;;;;;;;;;2.81;29.23;100816.53;5064739;28;19916;-79
2022/01/26 12:44:06;;;;;;;;;;;;;;;2.81;31.34;100824.16;5064496;28;21739;-79
2022/01/26 12:46:32;;;;;;;;;;;;;;;3.09;30.05;100819.84;5064171;28;19920;-79
2022/01/26 12:48:59;;;;;;;;;;;;;;;2.65;27.85;100811.81;5065549;28;20299;-80
2022/01/26 12:51:32;;;;;;;;;;;;;;;2.75;30.31;100823.97;5063460;28;20288;-79
2022/01/26 12:53:59;;;;;;;;;;;;;;;2.81;29.91;100830.94;5067749;28;19916;-79
2022/01/26 12:56:28;;;;;;;;;;;;;;;2.60;28.80;100826.94;5075525;28;19979;-79
2022/01/26 12:59:12;;;;;;;;;;;;;;;2.55;32.37;100820.84;5067397;28;20343;-79
2022/01/26 13:01:40;;;;;;;;;;;;;;;2.89;28.91;100832.00;5063244;28;19920;-78
2022/01/26 13:04:08;;;;;;;;;;;;;;;2.42;33.63;100824.72;5066240;28;19913;-79
2022/01/26 13:06:50;;;;;;;;;;;;;;;2.55;35.72;100827.63;5066042;28;19920;-79
2022/01/26 13:09:17;;;;;;;;;;;;;;;2.45;35.53;100852.75;5069447;28;19924;-79
2022/01/26 13:12:03;;;;;;;;;;;;;;;;;;;;;
2022/01/26 13:14:46;;;;;;;;;;;;;;;2.42;39.54;100865.41;5062904;28;19916;-80
2022/01/26 13:52:24;;;;;;;;;;;;;;;2.03;49.59;100998.00;5067183;28;19927;-79
2022/01/26 14:00:09;;;;;;;;;;;;;;;2.19;50.65;101044.25;5068197;28;19963;-79
2022/01/26 14:02:37;;;;;;;;;;;;;;;2.17;50.65;101049.31;5067303;28;19917;-79
2022/01/26 14:05:06;;;;;;;;;;;;;;;2.28;50.61;101052.19;5065741;28;19931;-78
2022/01/26 14:07:34;;;;;;;;;;;;;;;2.28;48.16;101064.91;5061475;28;19990;-80
2022/01/26 14:10:05;;;;;;;;;;;;;;;2.40;47.04;101080.63;5050186;28;19954;-79
2022/01/26 14:12:39;;;;;;;;;;;;;;;2.14;48.15;101081.38;5067285;28;19912;-79
2022/01/26 14:15:07;;;;;;;;;;;;;;;2.32;47.99;101087.09;5066828;28;20143;-78
2022/01/26 14:20:15;;;;;;;;;;;;;;;2.32;48.59;101107.44;5069936;28;19951;-79
2022/01/26 14:23:42;;;;;;;;;;;;;;;2.38;46.57;101109.34;5063212;28;19913;-79
2022/01/26 14:25:35;;;;;;;;;;;;;;;2.16;47.31;101095.00;5053442;28;20423;-79
2022/01/26 14:28:06;;;;;;;;;;;;;;;2.40;46.93;101106.03;5062719;28;20313;-79
2022/01/26 15:35:28;;;;;;;;;;;;;;;2.04;53.31;101217.41;5007223;28;19970;-79
2022/01/26 17:26:22;;;;;;;;;;;;;;;3.38;29.59;100863.06;5057985;28;19927;-78
2022/01/26 18:51:40;;;;;;;;;;;;;;;3.11;43.16;100763.06;5064196;28;19955;-78
2022/01/26 18:54:06;;;;;;;;;;;;;;;3.37;41.13;100769.66;5063086;28;20009;-77
2022/01/26 18:56:32;;;;;;;;;;;;;;;3.00;43.70;100771.25;5064604;28;20532;-77
2022/01/26 18:58:57;;;;;;;;;;;;;;;3.27;43.43;100787.25;5066577;28;20030;-78
2022/01/26 19:01:23;;;;;;;;;;;;;;;3.18;42.84;100787.00;5066110;28;20449;-78
2022/01/26 19:03:48;;;;;;;;;;;;;;;3.05;42.12;100778.16;5064273;28;19923;-77
2022/01/26 19:06:14;;;;;;;;;;;;;;;3.50;44.63;100792.06;5067149;28;19921;-77
2022/01/26 19:08:41;;;;;;;;;;;;;;;3.13;44.84;100797.06;5066288;28;20003;-78
2022/01/26 19:11:09;;;;;;;;;;;;;;;3.10;45.65;100796.09;5065373;28;19920;-78
2022/01/26 19:13:34;;;;;;;;;;;;;;;3.33;44.28;100807.78;5064917;28;19920;-77
2022/01/26 19:16:06;;;;;;;;;;;;;;;3.29;44.45;100805.13;5064085;28;19931;-77
2022/01/26 19:24:39;;;;;;;;;;;;;;;3.38;45.55;100819.78;5066235;28;19935;-77
2022/01/26 19:27:16;;;;;;;;;;;;;;;3.17;46.53;100820.94;5062148;28;19920;-78
2022/01/26 19:32:41;;;;;;;;;;;;;;;3.06;45.86;100810.44;5063601;28;19920;-78
2022/01/26 19:53:21;;;;;;;;;;;;;;;3.31;50.59;100888.38;5129896;27;19968;-79
2022/01/26 19:56:07;;;;;;;;;;;;;;;3.43;49.98;100884.44;5092281;28;20013;-80
2022/01/26 19:58:38;;;;;;;;;;;;;;;3.19;48.30;100872.72;5088140;28;19924;-81
2022/01/26 20:01:16;;;;;;;;;;;;;;;3.62;49.88;100876.44;5091614;28;20332;-79
2022/01/26 20:03:42;;;;;;;;;;;;;;;3.35;43.85;100859.63;5079631;28;19926;-80
2022/01/26 20:06:11;;;;;;;;;;;;;;;3.26;46.27;100855.94;5091960;28;19924;-79
2022/01/26 20:11:13;;;;;;;;;;;;;;;2.83;47.21;100832.72;5111325;27;19972;-79
2022/01/26 20:13:41;;;;;;;;;;;;;;;3.34;46.32;100832.41;5085800;28;19927;-79
2022/01/26 20:16:11;;;;;;;;;;;;;;;3.06;45.31;100832.50;5087320;28;20023;-78
2022/01/26 20:18:38;;;;;;;;;;;;;;;3.19;46.15;100819.25;5102978;28;19925;-78
2022/01/26 20:21:07;;;;;;;;;;;;;;;3.18;46.04;100820.09;5083072;28;19924;-79
2022/01/26 20:23:35;;;;;;;;;;;;;;;3.27;46.39;100820.34;5089964;28;19994;-79
2022/01/26 20:26:08;;;;;;;;;;;;;;;3.30;45.76;100815.31;5084088;28;20646;-79
2022/01/26 20:28:35;;;;;;;;;;;;;;;3.10;44.45;100814.81;5090824;28;20293;-78
2022/01/26 20:31:03;;;;;;;;;;;;;;;3.48;41.85;100814.09;5093806;28;19935;-78